createdAt,value
2018-12-10T00:01:59.844Z,99516.20
2018-12-10T00:07:10.830Z,99522.92
2018-12-10T00:12:22.443Z,99533.31
2018-12-10T00:17:35.017Z,99541.19
2018-12-10T00:22:45.573Z,99542.86
2018-12-10T00:27:58.195Z,99545.05
2018-12-10T00:33:13.802Z,99544.95
2018-12-10T00:38:24.532Z,99563.75
2018-12-10T00:43:48.664Z,99572.14
2018-12-10T00:49:00.547Z,99578.46
2018-12-10T00:54:10.821Z,99584.75
2018-12-10T00:59:21.559Z,99590.73
2018-12-10T01:04:32.600Z,99594.50
2018-12-10T01:09:43.418Z,99595.56
2018-12-10T01:14:54.902Z,99605.11
2018-12-10T01:20:06.536Z,99624.73
2018-12-10T01:25:17.878Z,99632.29
2018-12-10T01:30:54.395Z,99644.77
2018-12-10T01:36:06.200Z,99652.11
2018-12-10T01:41:17.559Z,99662.30
2018-12-10T01:46:28.782Z,99656.01
2018-12-10T01:51:39.650Z,99666.92
2018-12-10T01:56:49.438Z,99666.92
2018-12-10T02:02:29.497Z,99682.23
2018-12-10T02:07:40.893Z,99673.52
2018-12-10T02:12:55.588Z,99677.84
2018-12-10T02:18:07.606Z,99683.30
2018-12-10T02:23:35.702Z,99689.47
2018-12-10T02:28:51.787Z,99702.48
2018-12-10T02:34:14.591Z,99706.57
2018-12-10T02:39:25.847Z,99704.14
2018-12-10T02:47:48.687Z,99716.02
2018-12-10T02:53:12.352Z,99723.16
2018-12-10T02:58:23.609Z,99735.22
2018-12-10T03:06:46.557Z,99739.73
2018-12-10T03:11:57.787Z,99756.41
2018-12-10T03:17:09.389Z,99772.27
2018-12-10T03:22:19.859Z,99775.83
2018-12-10T03:27:31.310Z,99779.92
2018-12-10T03:32:46.651Z,99772.05
2018-12-10T03:37:57.667Z,99772.58
2018-12-10T03:43:15.438Z,99782.32
2018-12-10T03:48:26.572Z,99782.97
2018-12-10T03:53:37.623Z,99789.25
2018-12-10T03:58:48.825Z,99801.83
2018-12-10T04:04:00.438Z,99818.20
2018-12-10T04:09:11.825Z,99825.66
2018-12-10T04:14:22.416Z,99831.12
2018-12-10T04:19:33.912Z,99847.30
2018-12-10T04:24:45.745Z,99844.15
2018-12-10T04:30:02.445Z,99851.08
2018-12-10T04:35:14.707Z,99850.33
2018-12-10T04:40:27.723Z,99863.86
2018-12-10T04:45:38.767Z,99863.02
2018-12-10T04:50:53.726Z,99876.89
2018-12-10T04:56:03.548Z,99887.69
2018-12-10T05:01:32.965Z,99886.85
2018-12-10T05:04:03.173Z,99900.16
2018-12-10T05:09:14.611Z,99899.73
2018-12-10T05:14:55.341Z,99911.55
2018-12-10T05:20:06.626Z,99915.34
2018-12-10T05:25:17.624Z,99918.25
2018-12-10T05:30:38.899Z,99925.20
2018-12-10T05:35:49.575Z,99929.62
2018-12-10T05:41:20.181Z,99926.89
2018-12-10T05:46:31.659Z,99936.87
2018-12-10T05:51:42.813Z,99940.05
2018-12-10T05:56:54.369Z,99955.55
2018-12-10T06:02:05.892Z,99955.13
2018-12-10T06:07:16.535Z,99959.51
2018-12-10T06:12:30.566Z,99972.50
2018-12-10T06:17:41.721Z,99969.63
2018-12-10T06:22:57.577Z,99980.94
2018-12-10T06:28:08.884Z,99992.26
2018-12-10T06:33:19.866Z,99989.41
2018-12-10T06:38:30.618Z,99993.37
2018-12-10T06:43:45.584Z,100005.19
2018-12-10T06:48:56.519Z,100009.38
2018-12-10T06:57:18.353Z,100018.45
2018-12-10T07:02:29.323Z,100027.28
2018-12-10T07:07:40.747Z,100041.70
2018-12-10T07:12:51.712Z,100045.91
2018-12-10T07:18:02.553Z,100050.52
2018-12-10T07:23:26.800Z,100051.23
2018-12-10T07:28:38.014Z,100055.33
2018-12-10T07:33:55.902Z,100056.69
2018-12-10T07:39:09.548Z,100066.42
2018-12-10T07:44:37.714Z,100071.25
2018-12-10T07:49:50.684Z,100078.97
2018-12-10T07:55:01.592Z,100089.88
2018-12-10T08:00:28.856Z,100087.86
2018-12-10T08:05:39.671Z,100104.95
2018-12-10T08:10:53.788Z,100108.39
2018-12-10T08:16:04.581Z,100114.38
2018-12-10T08:21:20.197Z,100117.72
2018-12-10T08:26:30.981Z,100107.34
2018-12-10T08:31:42.578Z,100124.87
2018-12-10T08:36:55.602Z,100133.06
2018-12-10T08:42:07.583Z,100137.67
2018-12-10T08:47:17.684Z,100135.19
2018-12-10T08:52:31.867Z,100156.11
2018-12-10T08:57:42.609Z,100158.83
2018-12-10T09:02:52.553Z,100152.02
2018-12-10T09:08:03.824Z,100163.45
2018-12-10T09:13:18.568Z,100166.67
2018-12-10T09:18:29.770Z,100166.67
2018-12-10T09:23:40.569Z,100174.53
2018-12-10T09:28:51.597Z,100182.89
2018-12-10T09:34:10.547Z,100192.96
2018-12-10T09:39:21.773Z,100198.94
2018-12-10T09:44:32.576Z,100199.12
2018-12-10T09:49:48.456Z,100200.17
2018-12-10T09:54:59.742Z,100198.81
2018-12-10T10:00:13.287Z,100186.02
2018-12-10T10:05:24.591Z,100185.70
2018-12-10T10:10:48.486Z,100192.07
2018-12-10T10:15:59.744Z,100197.63
2018-12-10T10:21:11.413Z,100200.17
2018-12-10T10:26:22.749Z,100203.87
2018-12-10T10:37:26.563Z,100186.49
2018-12-10T10:42:43.776Z,100194.59
2018-12-10T10:47:54.490Z,100190.31
2018-12-10T10:53:04.699Z,100196.43
2018-12-10T10:58:15.564Z,100186.02
2018-12-10T11:04:05.684Z,100187.20
2018-12-10T11:09:18.229Z,100170.70
2018-12-10T11:14:42.717Z,100184.03
2018-12-10T11:19:59.870Z,100171.94
2018-12-10T11:25:10.908Z,100183.37
2018-12-10T11:33:02.711Z,100156.16
2018-12-10T11:38:13.795Z,100158.57
2018-12-10T11:43:24.805Z,100159.59
2018-12-10T11:48:35.609Z,100156.55
2018-12-10T11:53:46.777Z,100154.92
2018-12-10T11:58:57.912Z,100151.41
2018-12-10T12:04:08.736Z,100144.94
2018-12-10T12:09:19.575Z,100150.00
2018-12-10T12:14:31.845Z,100141.11
2018-12-10T12:19:42.595Z,100131.05
2018-12-10T12:24:53.564Z,100133.77
2018-12-10T12:30:10.452Z,100131.56
2018-12-10T12:35:21.729Z,100129.02
2018-12-10T12:40:33.597Z,100147.80
2018-12-10T12:45:44.793Z,100138.96
2018-12-10T12:51:01.429Z,100129.60
2018-12-10T12:56:13.358Z,100135.53
2018-12-10T13:01:49.080Z,100133.78
2018-12-10T13:07:02.672Z,100131.76
2018-12-10T13:12:13.558Z,100136.77
2018-12-10T13:17:24.872Z,100137.60
2018-12-10T13:22:35.770Z,100150.18
2018-12-10T13:27:46.887Z,100150.31
2018-12-10T13:32:59.594Z,100150.13
2018-12-10T13:38:12.588Z,100147.84
2018-12-10T13:43:23.663Z,100149.69
2018-12-10T13:48:34.568Z,100151.67
2018-12-10T13:53:58.437Z,100152.20
2018-12-10T13:59:10.707Z,100167.53
2018-12-10T14:04:29.965Z,100176.21
2018-12-10T14:09:41.498Z,100180.52
2018-12-10T14:14:53.479Z,100186.80
2018-12-10T14:20:05.688Z,100177.13
2018-12-10T14:25:34.759Z,100178.55
2018-12-10T14:31:14.733Z,100185.26
2018-12-10T14:36:33.503Z,100183.55
2018-12-10T14:44:31.481Z,100192.43
2018-12-10T14:49:42.367Z,100182.27
2018-12-10T14:54:52.666Z,100185.30
2018-12-10T15:00:03.524Z,100203.32
2018-12-10T15:05:14.300Z,100208.28
2018-12-10T15:10:29.287Z,100215.92
2018-12-10T15:15:40.002Z,100211.52
2018-12-10T15:20:54.724Z,100213.77
2018-12-10T15:26:05.712Z,100216.84
2018-12-10T15:31:16.815Z,100214.25
2018-12-10T15:36:27.763Z,100209.48
2018-12-10T15:41:59.636Z,100214.11
2018-12-10T15:47:10.959Z,100206.55
2018-12-10T15:52:21.551Z,100203.57
2018-12-10T15:57:34.429Z,100200.06
2018-12-10T16:02:49.587Z,100198.73
2018-12-10T16:08:00.844Z,100195.12
2018-12-10T16:13:11.593Z,100200.20
2018-12-10T16:18:22.821Z,100197.73
2018-12-10T16:23:40.802Z,100206.17
2018-12-10T16:28:51.724Z,100212.91
2018-12-10T16:34:04.200Z,100197.59
2018-12-10T16:39:16.066Z,100198.37
2018-12-10T16:44:26.803Z,100201.45
2018-12-10T16:52:18.311Z,100185.29
2018-12-10T16:57:29.678Z,100191.19
2018-12-10T17:02:40.476Z,100186.84
2018-12-10T17:07:58.724Z,100184.44
2018-12-10T17:13:09.583Z,100179.02
2018-12-10T17:18:20.571Z,100177.81
2018-12-10T17:23:30.567Z,100169.78
2018-12-10T17:31:12.662Z,100173.80
2018-12-10T17:36:23.772Z,100180.86
2018-12-10T17:41:35.606Z,100177.05
2018-12-10T17:48:32.910Z,100174.55
2018-12-10T17:53:44.310Z,100181.50
2018-12-10T17:58:55.757Z,100182.17
2018-12-10T18:07:17.797Z,100180.36
2018-12-10T18:12:30.303Z,100191.02
2018-12-10T18:17:41.873Z,100187.72
2018-12-10T18:22:54.305Z,100181.93
2018-12-10T18:28:05.905Z,100187.08
2018-12-10T18:33:16.721Z,100192.78
2018-12-10T18:38:27.599Z,100183.00
2018-12-10T18:43:45.712Z,100184.48
2018-12-10T18:48:57.202Z,100175.25
2018-12-10T18:54:08.198Z,100173.64
2018-12-10T18:59:19.571Z,100172.42
2018-12-10T19:04:30.629Z,100173.55
2018-12-10T19:09:42.308Z,100173.08
2018-12-10T19:14:54.267Z,100169.91
2018-12-10T19:20:05.027Z,100185.69
2018-12-10T19:25:15.936Z,100174.43
2018-12-10T19:30:27.305Z,100172.41
2018-12-10T19:35:38.535Z,100182.02
2018-12-10T19:40:49.909Z,100181.89
2018-12-10T19:47:26.705Z,100200.28
2018-12-10T19:52:37.620Z,100191.69
2018-12-10T19:57:50.553Z,100182.42
2018-12-10T20:03:04.998Z,100186.31
2018-12-10T20:08:27.367Z,100184.03
2018-12-10T20:13:48.010Z,100185.91
2018-12-10T20:18:59.877Z,100189.27
2018-12-10T20:24:10.665Z,100181.52
2018-12-10T20:29:22.894Z,100185.95
2018-12-10T20:34:33.846Z,100183.58
2018-12-10T20:39:44.881Z,100177.73
2018-12-10T20:44:55.566Z,100182.78
2018-12-10T20:53:11.300Z,100192.59
2018-12-10T20:58:22.633Z,100186.48
2018-12-10T21:03:34.262Z,100179.14
2018-12-10T21:08:57.550Z,100179.58
2018-12-10T21:14:09.877Z,100165.32
2018-12-10T21:19:21.279Z,100155.65
2018-12-10T21:24:33.609Z,100159.61
2018-12-10T21:29:44.560Z,100154.20
2018-12-10T21:34:55.837Z,100146.24
2018-12-10T21:40:06.782Z,100142.20
2018-12-10T21:45:18.618Z,100136.09
2018-12-10T21:50:29.996Z,100134.82
2018-12-10T21:55:40.876Z,100129.02
2018-12-10T22:00:54.246Z,100147.27
2018-12-10T22:06:05.679Z,100146.62
2018-12-10T22:11:17.704Z,100126.04
2018-12-10T22:16:28.800Z,100124.89
2018-12-10T22:21:27.540Z,100135.45
2018-12-10T22:26:38.804Z,100130.73
2018-12-10T22:31:50.826Z,100120.55
2018-12-10T22:37:02.305Z,100123.53
2018-12-10T22:42:15.855Z,100122.30
2018-12-10T22:47:27.452Z,100122.48
2018-12-10T22:52:38.748Z,100112.94
2018-12-10T22:57:49.865Z,100128.37
2018-12-10T23:03:07.317Z,100124.15
2018-12-10T23:08:18.587Z,100127.75
2018-12-10T23:13:30.473Z,100123.26
2018-12-10T23:18:41.898Z,100122.42
2018-12-10T23:23:53.803Z,100141.50
2018-12-10T23:29:04.377Z,100139.48
2018-12-10T23:34:14.853Z,100139.88
2018-12-10T23:39:25.695Z,100139.23
2018-12-10T23:44:41.733Z,100142.34
2018-12-10T23:49:52.601Z,100141.69
2018-12-10T23:55:03.925Z,100134.75
